Time;durP1;ratioP1;P1;durP2;ratioP2;P2;SDS_P1;SDS_P2;PMS_P1;PMS_P2;Temp;Humidity;BMP_temperature;BMP_pressure;BME280_temperature;BME280_humidity;BME280_pressure;Samples;Min_cycle;Max_cycle;Signal;HPM_P1;HPM_P2
2022/03/22 00:01:50;;;;;;;50.47;20.63;;;5.30;99.90;;;;;;5032632;28;20431;-73
2022/03/22 00:04:17;;;;;;;50.45;20.80;;;5.30;99.90;;;;;;5032420;28;20040;-73
2022/03/22 00:06:43;;;;;;;41.13;20.17;;;5.20;99.90;;;;;;5032403;28;20379;-73
2022/03/22 00:09:10;;;;;;;37.43;17.37;;;5.30;99.90;;;;;;5014855;28;20230;-73
2022/03/22 00:11:35;;;;;;;50.10;17.10;;;5.30;99.90;;;;;;5032354;28;20644;-73
2022/03/22 00:14:01;;;;;;;24.10;10.00;;;5.30;99.90;;;;;;5032618;28;20105;-74
2022/03/22 00:16:27;;;;;;;17.73;9.53;;;5.20;99.90;;;;;;5032439;28;20057;-73
2022/03/22 00:18:52;;;;;;;39.40;16.77;;;5.10;99.90;;;;;;5032410;28;20107;-73
2022/03/22 00:21:19;;;;;;;45.47;19.67;;;5.00;99.90;;;;;;5031619;28;20035;-73
2022/03/22 00:23:47;;;;;;;43.05;19.27;;;5.00;99.90;;;;;;5014661;28;20080;-73
2022/03/22 00:26:13;;;;;;;47.70;19.50;;;4.90;99.90;;;;;;5032332;28;20025;-73
2022/03/22 00:28:39;;;;;;;45.75;18.70;;;5.00;99.90;;;;;;5032153;28;20057;-74
2022/03/22 00:31:05;;;;;;;49.92;20.98;;;4.90;99.90;;;;;;5031950;28;20037;-79
2022/03/22 00:33:31;;;;;;;52.28;21.13;;;4.90;99.90;;;;;;5032046;28;20040;-73
2022/03/22 00:35:57;;;;;;;64.03;23.83;;;4.90;99.90;;;;;;5014412;28;20029;-73
2022/03/22 00:38:22;;;;;;;48.45;22.00;;;4.90;99.90;;;;;;5032213;28;20037;-73
2022/03/22 00:40:48;;;;;;;56.00;22.10;;;4.90;99.90;;;;;;5032362;28;20094;-73
2022/03/22 00:43:14;;;;;;;50.77;21.70;;;4.90;99.90;;;;;;5032164;28;20029;-73
2022/03/22 00:45:40;;;;;;;49.60;20.42;;;4.90;99.90;;;;;;5014026;28;20087;-73
2022/03/22 00:48:12;;;;;;;54.47;23.53;;;4.80;99.90;;;;;;5031984;28;20033;-78
2022/03/22 00:50:40;;;;;;;55.63;22.50;;;4.80;99.90;;;;;;5013942;28;20386;-73
2022/03/22 00:53:07;;;;;;;49.53;21.58;;;4.70;99.90;;;;;;5031774;28;20057;-73
2022/03/22 00:55:34;;;;;;;60.38;22.88;;;4.70;99.90;;;;;;5031850;28;20040;-73
2022/03/22 00:58:00;;;;;;;54.30;23.17;;;4.70;99.90;;;;;;5031954;28;20034;-73
2022/03/22 01:00:27;;;;;;;61.17;25.13;;;4.60;99.90;;;;;;5031635;28;20036;-73
2022/03/22 01:02:55;;;;;;;53.22;23.10;;;4.70;99.90;;;;;;5031720;28;20104;-73
2022/03/22 01:05:22;;;;;;;68.20;24.48;;;4.70;99.90;;;;;;5031865;28;20033;-74
2022/03/22 01:07:50;;;;;;;72.13;25.00;;;4.80;99.90;;;;;;5031782;28;20026;-74
2022/03/22 01:10:17;;;;;;;55.10;25.10;;;4.80;99.90;;;;;;5031835;28;20083;-73
2022/03/22 01:12:44;;;;;;;54.03;23.08;;;4.80;99.90;;;;;;5014442;28;20710;-74
2022/03/22 01:15:15;;;;;;;49.00;21.63;;;4.80;99.90;;;;;;5031740;28;20036;-73
2022/03/22 01:17:43;;;;;;;46.95;19.60;;;4.70;99.90;;;;;;5031155;28;20378;-73
2022/03/22 01:20:10;;;;;;;42.25;17.63;;;4.60;99.90;;;;;;5011439;28;20727;-81
2022/03/22 01:22:45;;;;;;;41.60;17.33;;;4.50;99.90;;;;;;5011865;28;20037;-74
2022/03/22 01:25:14;;;;;;;39.83;17.03;;;4.40;99.90;;;;;;4990702;28;20108;-73
2022/03/22 01:27:42;;;;;;;45.33;16.73;;;4.40;99.90;;;;;;4993031;28;20279;-80
2022/03/22 01:30:09;;;;;;;41.42;17.90;;;4.40;99.90;;;;;;4994837;28;20030;-73
2022/03/22 01:32:36;;;;;;;39.97;17.50;;;4.40;99.90;;;;;;4992717;28;20438;-73
2022/03/22 01:35:04;;;;;;;44.50;18.05;;;4.40;99.90;;;;;;4997308;28;20022;-73
2022/03/22 01:37:30;;;;;;;38.97;17.65;;;4.40;99.90;;;;;;4997206;28;20330;-73
2022/03/22 01:39:56;;;;;;;45.80;20.48;;;4.30;99.90;;;;;;4997602;28;20022;-73
2022/03/22 01:42:22;;;;;;;42.73;17.70;;;4.40;99.90;;;;;;4997876;28;20029;-73
2022/03/22 01:44:49;;;;;;;40.22;19.83;;;4.40;99.90;;;;;;4997551;28;20034;-73
2022/03/22 01:47:20;;;;;;;41.85;17.75;;;4.40;99.90;;;;;;5005160;28;20372;-73
2022/03/22 01:49:47;;;;;;;38.55;16.60;;;4.40;99.90;;;;;;5018464;28;20487;-73
2022/03/22 01:52:16;;;;;;;39.85;18.10;;;4.30;99.90;;;;;;5018763;28;20021;-74
2022/03/22 01:54:42;;;;;;;41.42;17.38;;;4.30;99.90;;;;;;5018511;28;20037;-73
2022/03/22 01:57:09;;;;;;;44.57;17.87;;;4.20;99.90;;;;;;5017368;28;20034;-73
2022/03/22 01:59:35;;;;;;;;;;;4.20;99.90;;;;;;5018651;28;20460;-78
2022/03/22 02:07:33;;;;;;;41.65;17.67;;;4.10;99.90;;;;;;5017529;28;20049;-73
2022/03/22 02:09:59;;;;;;;55.10;25.08;;;4.10;99.90;;;;;;5011693;28;20033;-73
2022/03/22 02:12:25;;;;;;;43.43;20.97;;;4.20;99.90;;;;;;5016937;28;20030;-74
2022/03/22 02:14:51;;;;;;;49.65;22.20;;;4.20;99.90;;;;;;5018117;28;20110;-74
2022/03/22 02:17:17;;;;;;;47.20;20.97;;;4.10;99.90;;;;;;5017944;28;20066;-74
2022/03/22 02:19:42;;;;;;;36.10;16.43;;;4.10;99.90;;;;;;5018390;28;20045;-73
2022/03/22 02:22:11;;;;;;;62.53;24.00;;;4.00;99.90;;;;;;5018026;28;20409;-73
2022/03/22 02:24:39;;;;;;;55.80;22.25;;;4.00;99.90;;;;;;5016803;28;20357;-73
2022/03/22 02:27:07;;;;;;;53.53;23.77;;;4.00;99.90;;;;;;5016741;28;20131;-73
2022/03/22 02:29:34;;;;;;;55.83;24.13;;;4.00;99.90;;;;;;5018166;28;20034;-73
2022/03/22 02:32:00;;;;;;;53.25;22.77;;;4.00;99.90;;;;;;5017785;28;20034;-73
2022/03/22 02:34:26;;;;;;;51.92;22.75;;;4.10;99.90;;;;;;5016775;28;20113;-73
2022/03/22 02:36:51;;;;;;;44.83;19.60;;;4.10;99.90;;;;;;5017927;28;20497;-74
2022/03/22 02:39:17;;;;;;;38.87;18.57;;;4.10;99.90;;;;;;5017953;28;20425;-73
2022/03/22 02:41:43;;;;;;;68.47;25.15;;;4.00;99.90;;;;;;5017355;28;20440;-73
2022/03/22 02:44:12;;;;;;;59.77;24.50;;;4.00;99.90;;;;;;5017206;28;20057;-73
2022/03/22 02:46:37;;;;;;;59.42;26.33;;;4.00;99.90;;;;;;5017316;28;20372;-73
2022/03/22 02:49:06;;;;;;;65.80;26.13;;;4.00;99.90;;;;;;5017930;28;20022;-73
2022/03/22 02:51:31;;;;;;;72.18;26.65;;;4.10;99.90;;;;;;5017164;28;20432;-73
2022/03/22 02:53:57;;;;;;;65.13;25.20;;;4.00;99.90;;;;;;5016325;28;20026;-74
2022/03/22 02:56:23;;;;;;;65.33;26.80;;;4.00;99.90;;;;;;5016015;28;20026;-73
2022/03/22 02:58:48;;;;;;;47.37;19.77;;;4.00;99.90;;;;;;5016332;28;20029;-73
2022/03/22 03:01:14;;;;;;;60.93;25.07;;;4.10;99.90;;;;;;5017219;28;20079;-73
2022/03/22 03:03:40;;;;;;;65.17;27.30;;;4.10;99.90;;;;;;5017302;28;20420;-74
2022/03/22 03:06:06;;;;;;;64.73;25.93;;;4.10;99.90;;;;;;5016173;28;20030;-74
2022/03/22 03:08:32;;;;;;;32.85;16.75;;;4.10;99.90;;;;;;5017542;28;20069;-73
2022/03/22 03:10:57;;;;;;;30.27;15.90;;;4.10;99.90;;;;;;5016810;28;20358;-83
2022/03/22 03:13:23;;;;;;;17.53;10.17;;;4.00;99.90;;;;;;5016014;28;20026;-74
2022/03/22 03:15:53;;;;;;;19.73;10.70;;;4.00;99.90;;;;;;5016874;28;20337;-73
2022/03/22 03:18:19;;;;;;;17.00;9.45;;;4.00;99.90;;;;;;5017018;28;20033;-73
2022/03/22 03:20:45;;;;;;;24.53;9.17;;;3.90;99.90;;;;;;5015615;28;20048;-74
2022/03/22 03:23:10;;;;;;;17.58;9.73;;;3.80;99.90;;;;;;5019988;28;20271;-74
2022/03/22 03:25:36;;;;;;;20.27;9.47;;;3.80;99.90;;;;;;5018998;28;20033;-73
2022/03/22 03:28:02;;;;;;;24.27;10.57;;;3.80;99.90;;;;;;5036644;28;20057;-74
2022/03/22 03:30:28;;;;;;;25.23;13.10;;;3.70;99.90;;;;;;5036551;28;20405;-74
2022/03/22 03:32:53;;;;;;;23.93;12.30;;;3.70;99.90;;;;;;5036334;28;20071;-74
2022/03/22 03:35:19;;;;;;;36.08;17.25;;;3.70;99.90;;;;;;5036730;28;20021;-73
2022/03/22 03:37:45;;;;;;;60.20;24.63;;;3.80;99.90;;;;;;5018634;28;20028;-74
2022/03/22 03:40:12;;;;;;;71.35;26.83;;;3.90;99.90;;;;;;5036514;28;20033;-73
2022/03/22 03:42:42;;;;;;;60.17;27.23;;;4.00;99.90;;;;;;5036542;28;20120;-72
2022/03/22 03:47:57;;;;;;;53.85;23.33;;;4.30;99.90;;;;;;5036285;28;20032;-73
2022/03/22 03:50:23;;;;;;;41.47;18.25;;;4.30;99.90;;;;;;5036290;28;20333;-79
2022/03/22 03:52:49;;;;;;;58.85;22.48;;;4.30;99.90;;;;;;5036289;28;20115;-73
2022/03/22 03:55:15;;;;;;;28.25;12.57;;;4.30;99.90;;;;;;5018342;28;20371;-73
2022/03/22 03:57:41;;;;;;;40.63;18.50;;;4.30;99.90;;;;;;5017563;28;20030;-73
2022/03/22 04:00:07;;;;;;;32.80;15.20;;;4.30;99.90;;;;;;5035935;28;20026;-82
2022/03/22 04:02:33;;;;;;;39.40;16.83;;;4.20;99.90;;;;;;5035996;28;20029;-74
2022/03/22 04:04:59;;;;;;;37.43;17.67;;;4.20;99.90;;;;;;5036000;28;20337;-73
2022/03/22 04:07:26;;;;;;;40.90;16.67;;;4.10;99.90;;;;;;5035760;28;20044;-73
2022/03/22 04:09:56;;;;;;;39.30;19.00;;;4.10;99.90;;;;;;5018183;28;20025;-73
2022/03/22 04:12:22;;;;;;;32.42;15.75;;;4.10;99.90;;;;;;5035559;28;20332;-73
2022/03/22 04:14:50;;;;;;;52.80;21.15;;;4.20;99.90;;;;;;5036009;28;20105;-73
2022/03/22 04:17:17;;;;;;;45.13;20.90;;;4.20;99.90;;;;;;5035563;28;20340;-74
2022/03/22 04:19:43;;;;;;;65.30;24.42;;;4.30;99.90;;;;;;5035661;28;20026;-73
2022/03/22 04:22:08;;;;;;;37.50;16.67;;;4.30;99.90;;;;;;5035562;28;20033;-73
2022/03/22 04:24:35;;;;;;;35.73;16.57;;;4.20;99.90;;;;;;5017947;28;20052;-82
2022/03/22 04:32:41;;;;;;;40.60;17.42;;;4.00;99.90;;;;;;5035400;28;20071;-73
2022/03/22 04:35:08;;;;;;;29.90;14.70;;;3.90;99.90;;;;;;5035320;28;20032;-73
2022/03/22 04:37:34;;;;;;;32.85;14.85;;;3.90;99.90;;;;;;5035317;28;20022;-73
2022/03/22 04:40:00;;;;;;;40.23;19.60;;;3.80;99.90;;;;;;5035616;28;20029;-73
2022/03/22 04:42:26;;;;;;;48.47;21.23;;;3.80;99.90;;;;;;5035459;28;20306;-73
2022/03/22 04:44:52;;;;;;;66.00;25.42;;;3.80;99.90;;;;;;5035246;28;20033;-81
2022/03/22 04:47:18;;;;;;;68.57;26.63;;;3.80;99.90;;;;;;5035556;28;20045;-74
2022/03/22 04:49:43;;;;;;;73.03;25.80;;;4.00;99.90;;;;;;5035507;28;20309;-74
2022/03/22 04:57:37;;;;;;;74.50;28.58;;;4.40;99.90;;;;;;5035215;28;20075;-81
2022/03/22 05:00:05;;;;;;;68.37;29.20;;;4.40;99.90;;;;;;5035223;28;20412;-73
2022/03/22 05:02:31;;;;;;;75.80;30.73;;;4.40;99.90;;;;;;5035033;28;20025;-73
2022/03/22 05:04:57;;;;;;;80.40;29.70;;;4.50;99.90;;;;;;5017660;28;20147;-73
2022/03/22 05:07:22;;;;;;;70.67;28.27;;;4.50;99.90;;;;;;5035321;28;20049;-74
2022/03/22 05:09:48;;;;;;;72.80;30.10;;;4.60;99.90;;;;;;5039140;28;20416;-74
2022/03/22 05:12:14;;;;;;;68.83;27.13;;;4.60;99.90;;;;;;5021408;28;20029;-73
2022/03/22 05:14:42;;;;;;;69.10;28.40;;;4.60;99.90;;;;;;5039073;28;20117;-74
2022/03/22 05:17:07;;;;;;;59.83;25.20;;;4.60;99.90;;;;;;5038928;28;20079;-74
2022/03/22 05:19:33;;;;;;;67.50;28.00;;;4.60;99.90;;;;;;5038976;28;20034;-73
2022/03/22 05:21:59;;;;;;;68.43;29.13;;;4.50;99.90;;;;;;5021358;28;20022;-73
2022/03/22 05:24:25;;;;;;;70.30;28.63;;;4.50;99.90;;;;;;5038860;28;20428;-73
2022/03/22 05:26:50;;;;;;;68.10;28.67;;;4.50;99.90;;;;;;5004915;28;20034;-72
2022/03/22 05:29:17;;;;;;;64.80;29.33;;;4.60;99.90;;;;;;5021134;28;20033;-73
2022/03/22 05:31:43;;;;;;;68.30;28.30;;;4.70;99.90;;;;;;5021172;28;20135;-73
2022/03/22 05:34:08;;;;;;;58.40;27.17;;;4.80;99.90;;;;;;5038692;28;20076;-74
2022/03/22 05:36:34;;;;;;;70.57;29.43;;;4.80;99.90;;;;;;5038547;28;20032;-74
2022/03/22 05:39:00;;;;;;;45.63;18.67;;;4.80;99.90;;;;;;5020983;28;20054;-73
2022/03/22 05:41:26;;;;;;;58.23;27.87;;;4.70;99.90;;;;;;5020915;28;20037;-82
2022/03/22 05:43:52;;;;;;;69.85;26.00;;;4.70;99.90;;;;;;5004480;28;20332;-73
2022/03/22 05:46:18;;;;;;;67.03;26.83;;;4.70;99.90;;;;;;5038552;28;20037;-73
2022/03/22 05:48:48;;;;;;;58.03;24.65;;;4.70;99.90;;;;;;5038214;28;20029;-73
2022/03/22 05:51:16;;;;;;;63.00;25.08;;;4.70;99.90;;;;;;5021229;28;20033;-74
2022/03/22 05:53:43;;;;;;;64.13;27.05;;;4.80;99.90;;;;;;5020389;28;20028;-73
2022/03/22 05:56:09;;;;;;;58.30;25.25;;;4.70;99.90;;;;;;5038393;28;20312;-73
2022/03/22 05:58:34;;;;;;;63.97;27.40;;;4.70;99.90;;;;;;5020442;28;20112;-74
2022/03/22 06:01:00;;;;;;;62.30;25.97;;;4.80;99.90;;;;;;5020429;28;20033;-73
2022/03/22 06:03:26;;;;;;;55.93;25.47;;;4.80;99.90;;;;;;5037927;28;20117;-73
2022/03/22 06:05:51;;;;;;;65.27;25.77;;;4.90;99.90;;;;;;5038233;28;20046;-73
2022/03/22 06:08:19;;;;;;;60.07;24.23;;;4.90;99.90;;;;;;5038103;28;20116;-73
2022/03/22 06:10:45;;;;;;;59.95;25.40;;;4.90;99.90;;;;;;5020530;28;20053;-73
2022/03/22 06:13:11;;;;;;;68.00;27.77;;;5.00;99.90;;;;;;5037645;28;20033;-73
2022/03/22 06:15:38;;;;;;;58.70;27.63;;;5.10;99.90;;;;;;5003718;28;20029;-82
2022/03/22 06:18:09;;;;;;;;;;;5.20;99.90;;;;;;5038048;28;20020;-73
2022/03/22 06:20:37;;;;;;;56.65;25.90;;;5.30;99.90;;;;;;5019156;28;19992;-73
2022/03/22 06:23:05;;;;;;;54.42;23.35;;;5.40;99.90;;;;;;5020028;28;20416;-82
2022/03/22 06:25:32;;;;;;;64.93;27.85;;;5.40;99.90;;;;;;5037744;28;20017;-73
2022/03/22 06:27:57;;;;;;;;;;;5.50;99.90;;;;;;5038209;28;20025;-73
2022/03/22 06:30:24;;;;;;;53.13;23.07;;;5.60;99.90;;;;;;5037483;28;19905;-73
2022/03/22 06:32:54;;;;;;;57.28;25.45;;;5.70;99.90;;;;;;5020400;28;20081;-73
2022/03/22 06:35:28;;;;;;;53.22;24.80;;;5.80;99.90;;;;;;5037289;28;20305;-73
2022/03/22 06:37:54;;;;;;;58.88;26.60;;;5.80;99.90;;;;;;5019763;28;20032;-73
2022/03/22 06:40:23;;;;;;;55.75;24.85;;;6.00;99.90;;;;;;5019771;28;20029;-73
2022/03/22 06:42:50;;;;;;;59.42;26.13;;;6.10;99.90;;;;;;5037191;28;20311;-73
2022/03/22 06:45:16;;;;;;;54.67;26.00;;;6.30;99.90;;;;;;5019489;28;20033;-73
2022/03/22 06:47:43;;;;;;;53.42;23.83;;;6.50;99.90;;;;;;5019434;28;20416;-74
2022/03/22 06:50:10;;;;;;;53.95;23.73;;;6.60;99.90;;;;;;5037051;28;20029;-73
2022/03/22 06:52:36;;;;;;;60.25;24.63;;;6.70;99.90;;;;;;5037079;28;20053;-73
2022/03/22 06:55:04;;;;;;;57.60;26.70;;;6.80;99.90;;;;;;5036866;28;20028;-73
2022/03/22 06:57:31;;;;;;;50.92;24.02;;;7.10;99.90;;;;;;5037031;28;20060;-73
2022/03/22 06:59:57;;;;;;;57.85;25.70;;;7.40;99.90;;;;;;5036650;28;20340;-73
2022/03/22 07:02:23;;;;;;;61.08;25.80;;;7.80;99.90;;;;;;5036973;28;20029;-73
2022/03/22 07:04:49;;;;;;;54.10;24.53;;;8.20;99.90;;;;;;5036938;28;20040;-73
2022/03/22 07:07:15;;;;;;;50.00;25.23;;;8.70;99.90;;;;;;5036733;28;20037;-74
2022/03/22 07:09:42;;;;;;;49.70;23.50;;;9.30;99.90;;;;;;5036609;28;20344;-73
2022/03/22 07:12:08;;;;;;;52.97;23.52;;;9.80;99.90;;;;;;5036517;28;20053;-83
2022/03/22 07:14:36;;;;;;;48.00;23.33;;;10.10;99.90;;;;;;5036614;28;20064;-73
2022/03/22 07:17:01;;;;;;;47.45;22.75;;;10.30;99.90;;;;;;5036493;28;20113;-75
2022/03/22 07:19:28;;;;;;;49.38;22.23;;;10.50;99.90;;;;;;5019062;28;20101;-73
2022/03/22 07:21:57;;;;;;;46.42;20.63;;;10.90;99.90;;;;;;5002782;28;20313;-74
2022/03/22 07:24:23;;;;;;;42.67;21.10;;;11.30;99.90;;;;;;5036151;28;20140;-74
2022/03/22 07:26:49;;;;;;;50.08;20.55;;;11.70;99.90;;;;;;5036446;28;20100;-73
2022/03/22 07:29:15;;;;;;;43.23;20.17;;;12.10;99.90;;;;;;5036534;28;20037;-74
2022/03/22 07:31:41;;;;;;;44.75;19.40;;;12.20;99.90;;;;;;5036257;28;20029;-74
2022/03/22 07:34:12;;;;;;;43.80;19.90;;;12.60;99.90;;;;;;5018572;28;20028;-73
2022/03/22 07:36:41;;;;;;;40.63;19.42;;;12.90;99.90;;;;;;5036546;28;20029;-80
2022/03/22 07:39:08;;;;;;;35.33;18.48;;;13.40;99.90;;;;;;5018296;28;20329;-74
2022/03/22 07:41:36;;;;;;;39.75;20.08;;;13.70;99.90;;;;;;5018497;28;20183;-74
2022/03/22 07:44:03;;;;;;;39.80;19.63;;;14.00;99.90;;;;;;5036267;28;20030;-74
2022/03/22 07:46:28;;;;;;;30.95;17.48;;;14.40;99.90;;;;;;5018323;28;20432;-74
2022/03/22 07:48:54;;;;;;;30.77;17.90;;;14.70;99.90;;;;;;5018320;28;20115;-73
2022/03/22 07:54:05;;;;;;;36.78;17.33;;;15.30;99.90;;;;;;5035841;28;20032;-74
2022/03/22 07:56:30;;;;;;;28.65;16.77;;;15.40;99.90;;;;;;5018261;28;20036;-74
2022/03/22 07:58:57;;;;;;;34.87;18.50;;;15.80;99.90;;;;;;5018050;28;20021;-74
2022/03/22 08:01:24;;;;;;;39.42;17.77;;;15.70;99.90;;;;;;5035696;28;20083;-75
2022/03/22 08:03:50;;;;;;;37.90;17.40;;;15.80;99.90;;;;;;5001933;28;20053;-74
2022/03/22 08:06:16;;;;;;;28.73;16.00;;;15.90;99.90;;;;;;5036005;28;20030;-74
2022/03/22 08:08:44;;;;;;;33.90;18.33;;;15.90;99.90;;;;;;5035620;28;20328;-79
2022/03/22 08:11:10;;;;;;;30.77;17.05;;;15.60;99.90;;;;;;5035443;28;20409;-74
2022/03/22 08:13:38;;;;;;;36.78;17.10;;;15.60;99.90;;;;;;5035761;28;20045;-74
2022/03/22 08:16:04;;;;;;;40.08;17.75;;;15.80;99.90;;;;;;5001343;28;20037;-74
2022/03/22 08:18:30;;;;;;;;;;;15.90;99.90;;;;;;5035980;28;20028;-74
2022/03/22 08:20:56;;;;;;;28.70;15.27;;;15.90;99.90;;;;;;5035546;28;19905;-74
2022/03/22 08:23:22;;;;;;;38.30;17.30;;;16.20;99.90;;;;;;5035455;28;20041;-75
2022/03/22 08:25:49;;;;;;;32.40;16.23;;;16.20;99.90;;;;;;5035252;28;20037;-74
2022/03/22 08:28:16;;;;;;;31.20;16.02;;;16.60;99.80;;;;;;5017885;28;20081;-76
2022/03/22 08:30:42;;;;;;;39.60;15.70;;;16.80;99.60;;;;;;5035424;28;20029;-75
2022/03/22 08:33:09;;;;;;;53.20;17.30;;;17.10;99.70;;;;;;5017721;28;20029;-75
2022/03/22 08:35:41;;;;;;;24.98;15.13;;;17.50;99.10;;;;;;5035187;28;20021;-74
2022/03/22 08:38:08;;;;;;;25.98;14.48;;;17.70;97.80;;;;;;5017761;28;20084;-74
2022/03/22 08:40:34;;;;;;;32.38;14.93;;;17.90;96.60;;;;;;5016407;28;20034;-75
2022/03/22 08:43:01;;;;;;;30.97;15.03;;;17.70;98.00;;;;;;5030790;28;20036;-74
2022/03/22 08:45:27;;;;;;;33.00;14.60;;;17.80;97.20;;;;;;5031871;28;20356;-74
2022/03/22 08:47:54;;;;;;;24.20;13.43;;;18.00;97.10;;;;;;5031582;28;20419;-75
2022/03/22 08:50:22;;;;;;;30.52;14.40;;;17.90;96.80;;;;;;5031882;28;20018;-82
2022/03/22 08:52:49;;;;;;;29.45;14.38;;;18.10;97.00;;;;;;5031490;28;20163;-75
2022/03/22 08:55:17;;;;;;;26.85;15.13;;;18.20;96.70;;;;;;5031332;28;20029;-75
2022/03/22 08:57:44;;;;;;;30.17;14.93;;;18.40;96.60;;;;;;5013755;28;20472;-74
2022/03/22 09:00:10;;;;;;;;;;;18.60;96.80;;;;;;5014203;28;20116;-75
2022/03/22 09:02:41;;;;;;;31.50;14.95;;;18.80;96.40;;;;;;5013852;28;19932;-74
2022/03/22 09:07:58;;;;;;;31.83;14.82;;;18.70;96.90;;;;;;5031727;28;20095;-75
2022/03/22 09:10:27;;;;;;;39.88;14.73;;;19.30;95.30;;;;;;5031593;28;20355;-75
2022/03/22 09:12:53;;;;;;;30.90;15.68;;;19.10;94.80;;;;;;5031673;28;20025;-75
2022/03/22 09:15:20;;;;;;;25.30;13.88;;;19.20;95.20;;;;;;5013913;28;20049;-75
2022/03/22 09:17:47;;;;;;;28.15;15.02;;;19.00;95.00;;;;;;5013602;28;20060;-75
2022/03/22 09:20:13;;;;;;;29.27;15.00;;;19.10;95.10;;;;;;5031185;28;20419;-76
2022/03/22 09:22:44;;;;;;;31.00;15.18;;;19.40;95.30;;;;;;5013522;28;20036;-76
2022/03/22 09:25:11;;;;;;;32.03;15.18;;;19.70;95.50;;;;;;5013459;28;20057;-75
2022/03/22 09:27:43;;;;;;;25.80;13.52;;;19.70;94.50;;;;;;5030971;28;20420;-75
2022/03/22 09:30:10;;;;;;;24.73;14.18;;;19.70;93.80;;;;;;5031128;28;20029;-75
2022/03/22 09:32:37;;;;;;;28.05;14.15;;;19.70;93.40;;;;;;5031114;28;20036;-83
2022/03/22 09:35:07;;;;;;;31.83;14.10;;;19.60;95.50;;;;;;4997194;28;20044;-76
2022/03/22 09:37:42;;;;;;;28.13;14.80;;;19.80;95.60;;;;;;5013232;28;20041;-76
2022/03/22 09:40:09;;;;;;;26.83;14.20;;;20.00;94.60;;;;;;5013370;28;20048;-75
2022/03/22 09:42:38;;;;;;;23.73;12.88;;;20.10;93.50;;;;;;5030922;28;20044;-75
2022/03/22 09:45:08;;;;;;;21.73;13.70;;;20.00;93.60;;;;;;5030990;28;20432;-76
2022/03/22 09:47:38;;;;;;;32.63;15.45;;;20.00;93.30;;;;;;5030800;28;20032;-75
2022/03/22 09:50:06;;;;;;;24.63;14.25;;;20.10;94.80;;;;;;5013321;28;20503;-77
2022/03/22 09:52:34;;;;;;;43.35;15.43;;;20.20;93.50;;;;;;5013064;28;20033;-76
2022/03/22 09:55:00;;;;;;;28.10;13.25;;;20.10;94.00;;;;;;5014512;28;20029;-75
2022/03/22 09:57:25;;;;;;;24.53;13.37;;;20.30;93.40;;;;;;5016888;28;20600;-77
2022/03/22 09:59:51;;;;;;;27.80;12.87;;;20.10;94.20;;;;;;5034679;28;20104;-75
2022/03/22 10:02:32;;;;;;;29.53;14.47;;;20.20;93.00;;;;;;5034334;28;20692;-76
2022/03/22 10:04:58;;;;;;;31.38;14.40;;;20.00;94.50;;;;;;5034666;28;20029;-80
2022/03/22 10:07:27;;;;;;;19.90;12.95;;;20.20;94.40;;;;;;5034411;28;20038;-75
2022/03/22 10:09:54;;;;;;;24.08;12.65;;;20.20;94.10;;;;;;5034530;28;20049;-76
2022/03/22 10:12:37;;;;;;;28.42;14.35;;;20.40;94.30;;;;;;5016320;28;20033;-77
2022/03/22 10:15:15;;;;;;;21.88;13.95;;;20.40;93.20;;;;;;5016295;28;20025;-76
2022/03/22 10:17:43;;;;;;;23.80;14.60;;;20.20;94.00;;;;;;5034099;28;20090;-76
2022/03/22 10:20:19;;;;;;;23.27;13.80;;;20.20;93.40;;;;;;5016413;28;20481;-76
2022/03/22 10:22:53;;;;;;;27.60;14.15;;;20.20;94.20;;;;;;5018051;28;20037;-76
2022/03/22 10:25:19;;;;;;;24.80;13.35;;;19.80;94.00;;;;;;5034163;28;20045;-76
2022/03/22 10:27:45;;;;;;;27.37;13.83;;;19.80;94.10;;;;;;5033877;28;20036;-76
2022/03/22 10:30:11;;;;;;;27.00;15.07;;;20.20;94.10;;;;;;5016456;28;20036;-76
2022/03/22 10:32:42;;;;;;;28.08;14.68;;;20.10;93.40;;;;;;5034178;28;20033;-75
2022/03/22 10:35:12;;;;;;;26.95;13.63;;;19.40;93.70;;;;;;5016462;28;20511;-76
2022/03/22 10:37:42;;;;;;;32.70;13.75;;;18.60;93.30;;;;;;5016127;28;20029;-76
2022/03/22 10:40:34;;;;;;;27.20;16.17;;;18.60;93.50;;;;;;5033772;28;20439;-75
2022/03/22 10:43:06;;;;;;;28.35;15.65;;;18.40;93.90;;;;;;5015972;28;20025;-75
2022/03/22 10:45:52;;;;;;;26.30;15.60;;;18.00;95.70;;;;;;5015923;28;20029;-83
2022/03/22 10:48:28;;;;;;;26.92;15.70;;;17.70;95.30;;;;;;5033954;28;20037;-76
2022/03/22 10:50:55;;;;;;;29.63;16.55;;;17.60;95.30;;;;;;5033503;28;20083;-75
2022/03/22 10:53:23;;;;;;;30.25;16.08;;;17.50;95.50;;;;;;5033368;28;20045;-76
2022/03/22 10:55:50;;;;;;;31.77;15.70;;;17.60;96.30;;;;;;5033786;28;20033;-76
2022/03/22 10:58:25;;;;;;;30.38;14.93;;;17.70;95.30;;;;;;5015570;28;20049;-76
2022/03/22 11:00:51;;;;;;;26.58;14.95;;;17.80;95.20;;;;;;5033862;28;20088;-76
2022/03/22 11:03:18;;;;;;;29.88;15.18;;;17.80;94.50;;;;;;5033556;28;20025;-75
2022/03/22 11:05:50;;;;;;;32.17;16.60;;;17.90;94.90;;;;;;5032961;28;20416;-75
2022/03/22 11:08:20;;;;;;;25.80;14.90;;;17.90;95.80;;;;;;5033164;28;20037;-76
2022/03/22 11:10:46;;;;;;;23.98;14.00;;;18.10;95.60;;;;;;5033246;28;20483;-76
2022/03/22 11:13:12;;;;;;;29.20;15.20;;;18.30;94.70;;;;;;5015256;28;20029;-78
2022/03/22 11:15:44;;;;;;;23.47;14.40;;;18.60;94.80;;;;;;5032966;28;20084;-76
2022/03/22 11:18:11;;;;;;;24.25;15.07;;;18.80;94.20;;;;;;5033224;28;20112;-75
2022/03/22 11:20:47;;;;;;;29.10;14.38;;;18.70;93.80;;;;;;5015310;28;20025;-74
2022/03/22 11:23:13;;;;;;;;;;;18.40;94.70;;;;;;5017029;28;20448;-77
2022/03/22 11:25:39;;;;;;;29.43;15.00;;;18.10;93.90;;;;;;5015384;28;19909;-75
2022/03/22 11:28:05;;;;;;;28.00;13.87;;;18.00;95.10;;;;;;5015003;28;20312;-75
2022/03/22 11:30:33;;;;;;;34.83;15.85;;;18.10;95.80;;;;;;5032715;28;20322;-76
2022/03/22 11:35:50;;;;;;;30.67;16.52;;;17.90;95.00;;;;;;5032947;28;20052;-75
2022/03/22 11:38:35;;;;;;;27.30;14.50;;;18.00;94.70;;;;;;5032413;28;20025;-74
2022/03/22 11:43:46;;;;;;;29.88;16.25;;;17.70;95.30;;;;;;5032474;28;20113;-74
2022/03/22 11:46:12;;;;;;;28.15;14.65;;;17.50;95.70;;;;;;5014655;28;20060;-76
2022/03/22 11:48:41;;;;;;;28.38;16.13;;;17.50;95.20;;;;;;5014704;28;20041;-75
2022/03/22 11:51:08;;;;;;;30.27;16.35;;;17.60;96.80;;;;;;5032309;28;20029;-75
2022/03/22 11:53:44;;;;;;;26.67;15.77;;;17.60;96.30;;;;;;5032172;28;20708;-74
2022/03/22 11:56:11;;;;;;;26.33;15.32;;;17.70;95.60;;;;;;5032599;28;20099;-75
2022/03/22 11:58:47;;;;;;;27.70;16.70;;;17.70;94.80;;;;;;5032088;28;20033;-75
2022/03/22 12:01:16;;;;;;;33.57;16.10;;;17.90;95.80;;;;;;5014445;28;20040;-76
2022/03/22 12:03:50;;;;;;;31.42;16.35;;;18.10;94.40;;;;;;5014196;28;20312;-75
2022/03/22 12:06:17;;;;;;;27.33;14.07;;;18.30;94.40;;;;;;5032291;28;20032;-75
2022/03/22 12:08:43;;;;;;;27.83;14.68;;;18.40;93.70;;;;;;5031999;28;20041;-75
2022/03/22 12:11:15;;;;;;;33.03;14.77;;;18.50;93.60;;;;;;5032450;28;20037;-76
2022/03/22 12:13:44;;;;;;;28.58;13.95;;;18.60;93.40;;;;;;5032128;28;20247;-74
2022/03/22 12:16:10;;;;;;;26.63;14.40;;;18.70;93.30;;;;;;4997972;28;20305;-75
2022/03/22 12:18:36;;;;;;;33.50;15.20;;;18.80;93.30;;;;;;5031259;28;20147;-75
2022/03/22 12:21:02;;;;;;;28.13;15.30;;;18.80;92.30;;;;;;5014299;28;20029;-77
2022/03/22 12:23:28;;;;;;;33.25;18.08;;;18.90;94.50;;;;;;5031614;28;20056;-77
2022/03/22 12:25:55;;;;;;;32.37;17.23;;;19.00;96.20;;;;;;5013905;28;20030;-79
2022/03/22 12:28:20;;;;;;;35.15;15.85;;;19.00;96.40;;;;;;4997729;28;20037;-76
2022/03/22 12:30:47;;;;;;;32.27;18.03;;;18.80;94.60;;;;;;5031799;28;20033;-77
2022/03/22 12:33:14;;;;;;;36.35;18.55;;;18.70;97.00;;;;;;5014005;28;20083;-77
2022/03/22 12:35:43;;;;;;;31.27;16.40;;;18.60;97.70;;;;;;5031753;28;20332;-77
2022/03/22 12:38:09;;;;;;;39.13;18.40;;;18.60;97.50;;;;;;5031464;28;20116;-76
2022/03/22 12:40:36;;;;;;;32.00;16.13;;;18.50;97.10;;;;;;5014065;28;20108;-75
2022/03/22 12:43:03;;;;;;;31.85;17.75;;;18.60;98.10;;;;;;5031641;28;20317;-77
2022/03/22 12:45:33;;;;;;;32.75;16.25;;;18.40;97.40;;;;;;5013821;28;20079;-77
2022/03/22 12:48:00;;;;;;;38.25;19.00;;;18.40;97.00;;;;;;5031398;28;20065;-76
2022/03/22 12:50:29;;;;;;;39.17;18.70;;;18.40;96.90;;;;;;5032002;28;20030;-76
2022/03/22 12:52:56;;;;;;;29.60;16.33;;;18.40;97.30;;;;;;5013653;28;20382;-75
2022/03/22 12:55:22;;;;;;;29.10;15.00;;;18.30;98.30;;;;;;5031578;28;20364;-76
2022/03/22 12:57:56;;;;;;;30.58;17.73;;;18.20;97.20;;;;;;5031731;28;20116;-77
2022/03/22 13:00:27;;;;;;;31.63;17.67;;;18.10;97.60;;;;;;5013968;28;20121;-76
2022/03/22 13:02:53;;;;;;;28.83;15.65;;;18.20;98.20;;;;;;5031507;28;20025;-77
2022/03/22 13:05:28;;;;;;;32.08;17.35;;;18.20;97.10;;;;;;5013724;28;20040;-75
2022/03/22 13:07:58;;;;;;;33.13;17.80;;;18.20;97.70;;;;;;5031387;28;20033;-77